Time;durP1;ratioP1;P1;durP2;ratioP2;P2;SDS_P1;SDS_P2;PMS_P1;PMS_P2;Temp;Humidity;BMP_temperature;BMP_pressure;BME280_temperature;BME280_humidity;BME280_pressure;Samples;Min_cycle;Max_cycle;Signal;HPM_P1;HPM_P2
2022/04/30 00:02:13;;;;;;;82.95;8.82;;;;;;;12.64;100.00;98416.88;5000822;28;20038;-54
2022/04/30 00:04:47;;;;;;;70.78;8.60;;;;;;;12.56;100.00;98418.16;4999868;28;20030;-55
2022/04/30 00:07:14;;;;;;;70.65;8.82;;;;;;;12.63;100.00;98414.38;5001597;28;20042;-54
2022/04/30 00:09:41;;;;;;;63.47;8.13;;;;;;;12.81;100.00;98416.19;5000753;28;20636;-54
2022/04/30 00:12:07;;;;;;;71.70;9.25;;;;;;;12.68;100.00;98417.63;5002769;28;20077;-55
2022/04/30 00:14:32;;;;;;;89.38;9.05;;;;;;;12.73;100.00;98415.66;5000932;28;20125;-55
2022/04/30 00:16:58;;;;;;;75.05;8.40;;;;;;;12.86;100.00;98421.22;4999741;28;20185;-57
2022/04/30 00:19:24;;;;;;;76.68;8.85;;;;;;;12.65;100.00;98417.75;5001167;28;20026;-57
2022/04/30 00:21:50;;;;;;;77.70;9.10;;;;;;;12.37;100.00;98418.06;4996943;28;20042;-56
2022/04/30 00:24:15;;;;;;;81.25;9.43;;;;;;;12.21;100.00;98417.88;4998037;28;20524;-55
2022/04/30 00:26:41;;;;;;;84.43;9.68;;;;;;;12.18;100.00;98407.50;4999947;28;20044;-55
2022/04/30 00:29:07;;;;;;;74.22;8.82;;;;;;;12.37;100.00;98403.25;4998197;28;20033;-55
2022/04/30 00:31:34;;;;;;;84.03;9.63;;;;;;;12.07;100.00;98406.19;5000077;28;20038;-57
2022/04/30 00:34:01;;;;;;;84.28;9.82;;;;;;;12.13;100.00;98403.34;5000620;28;20091;-57
2022/04/30 00:36:26;;;;;;;76.22;9.10;;;;;;;12.00;100.00;98398.66;4998947;28;20091;-55
2022/04/30 00:38:51;;;;;;;74.13;9.48;;;;;;;11.98;100.00;98405.72;4999353;28;20470;-55
2022/04/30 00:41:17;;;;;;;70.75;9.32;;;;;;;11.92;100.00;98397.19;5001361;28;20577;-56
2022/04/30 00:43:47;;;;;;;93.40;10.73;;;;;;;11.93;100.00;98398.06;5002447;28;20018;-56
2022/04/30 00:46:16;;;;;;;87.22;10.13;;;;;;;11.68;100.00;98398.13;4998432;28;20038;-55
2022/04/30 00:48:43;;;;;;;98.93;10.50;;;;;;;11.74;100.00;98392.66;5002112;28;20029;-55
2022/04/30 00:51:18;;;;;;;85.53;10.00;;;;;;;11.80;100.00;98391.56;4997463;28;20038;-56
2022/04/30 00:53:47;;;;;;;82.57;9.65;;;;;;;11.72;100.00;98394.50;4999529;28;20034;-54
2022/04/30 00:56:14;;;;;;;81.75;10.05;;;;;;;11.71;100.00;98401.50;5000314;28;20072;-53
2022/04/30 00:58:42;;;;;;;80.50;9.27;;;;;;;11.81;100.00;98388.06;5003119;28;20034;-55
2022/04/30 01:01:07;;;;;;;74.18;9.60;;;;;;;11.60;100.00;98389.72;5003992;28;20045;-55
2022/04/30 01:03:33;;;;;;;84.03;9.80;;;;;;;11.50;100.00;98387.47;5003021;28;20026;-57
2022/04/30 01:06:01;;;;;;;87.00;8.95;;;;;;;11.73;100.00;98390.97;5002869;28;20380;-55
2022/04/30 01:08:28;;;;;;;67.30;9.10;;;;;;;11.46;100.00;98387.66;5003570;28;20113;-55
2022/04/30 01:11:00;;;;;;;81.93;9.93;;;;;;;11.70;100.00;98389.31;5004765;28;20037;-54
2022/04/30 01:13:27;;;;;;;;;;;;;;;11.57;100.00;98391.56;5005387;28;20034;-56
2022/04/30 01:15:52;;;;;;;64.10;9.02;;;;;;;11.68;100.00;98387.69;5003362;28;19918;-56
2022/04/30 01:18:18;;;;;;;76.28;9.88;;;;;;;11.46;100.00;98385.91;5004449;28;20025;-54
2022/04/30 01:20:50;;;;;;;81.15;10.10;;;;;;;11.63;100.00;98387.00;5002561;28;20046;-55
2022/04/30 01:23:17;;;;;;;89.72;10.75;;;;;;;11.50;100.00;98378.81;5002710;28;20033;-56
2022/04/30 01:25:44;;;;;;;72.82;9.02;;;;;;;11.67;100.00;98384.22;5004815;28;20041;-56
2022/04/30 01:28:11;;;;;;;85.90;10.07;;;;;;;11.58;100.00;98382.81;5003780;28;20026;-55
2022/04/30 01:30:36;;;;;;;65.20;9.23;;;;;;;11.55;100.00;98375.09;5005191;28;20041;-56
2022/04/30 01:37:22;;;;;;;78.97;10.02;;;;;;;11.36;100.00;98380.19;5004704;28;20445;-55
2022/04/30 01:38:48;;;;;;;72.07;9.75;;;;;;;11.66;100.00;98384.28;5002840;28;20121;-56
2022/04/30 01:41:14;;;;;;;77.72;10.00;;;;;;;11.50;100.00;98374.41;5002564;28;20112;-56
2022/04/30 01:43:39;;;;;;;78.63;10.57;;;;;;;11.45;100.00;98378.13;5002298;28;20443;-55
2022/04/30 01:46:05;;;;;;;92.70;10.75;;;;;;;11.33;100.00;98367.25;4999870;28;20038;-56
2022/04/30 01:48:32;;;;;;;97.40;9.98;;;;;;;11.73;100.00;98375.31;5004354;28;20477;-57
2022/04/30 01:50:59;;;;;;;79.95;10.85;;;;;;;11.27;100.00;98372.72;5003619;28;20041;-55
2022/04/30 01:53:25;;;;;;;81.43;10.40;;;;;;;11.33;100.00;98367.25;5003470;28;20029;-55
2022/04/30 01:55:51;;;;;;;85.63;11.10;;;;;;;11.44;100.00;98371.22;5003564;28;20038;-54
2022/04/30 01:58:16;;;;;;;75.85;9.80;;;;;;;11.32;100.00;98370.78;5006574;28;20038;-56
2022/04/30 02:00:41;;;;;;;91.03;10.70;;;;;;;11.22;100.00;98371.19;5002206;28;20060;-55
2022/04/30 02:03:08;;;;;;;83.78;10.75;;;;;;;11.29;100.00;98359.59;5003542;28;20023;-55
2022/04/30 02:05:36;;;;;;;93.70;10.27;;;;;;;11.33;100.00;98361.16;5004665;28;20033;-55
2022/04/30 02:08:06;;;;;;;72.68;9.57;;;;;;;11.31;100.00;98361.22;5003919;28;20034;-55
2022/04/30 02:10:35;;;;;;;68.45;9.80;;;;;;;11.26;100.00;98363.16;5001913;28;20038;-55
2022/04/30 02:13:03;;;;;;;74.65;9.82;;;;;;;11.27;100.00;98358.81;5001821;28;20037;-54
2022/04/30 02:15:29;;;;;;;80.10;10.60;;;;;;;11.14;100.00;98358.41;5004339;28;20472;-54
2022/04/30 02:17:57;;;;;;;95.32;10.95;;;;;;;11.15;100.00;98353.13;5003203;28;20029;-56
2022/04/30 02:20:33;;;;;;;66.88;9.75;;;;;;;11.13;100.00;98354.09;5002234;28;20053;-55
2022/04/30 02:23:02;;;;;;;80.43;10.45;;;;;;;10.99;100.00;98352.84;5001618;28;20018;-55
2022/04/30 02:25:28;;;;;;;63.97;10.05;;;;;;;10.95;100.00;98346.06;5004222;28;20042;-56
2022/04/30 02:27:56;;;;;;;95.22;10.98;;;;;;;10.96;100.00;98344.28;5001409;28;20077;-56
2022/04/30 02:30:24;;;;;;;96.65;11.27;;;;;;;10.84;100.00;98345.56;5001796;28;20219;-55
2022/04/30 02:32:55;;;;;;;91.28;10.75;;;;;;;10.85;100.00;98341.22;5002211;28;20251;-58
2022/04/30 02:35:26;;;;;;;79.88;10.80;;;;;;;11.02;100.00;98335.38;5000733;28;20121;-55
2022/04/30 02:37:54;;;;;;;73.55;10.68;;;;;;;10.91;100.00;98333.16;5001752;28;20546;-54
2022/04/30 02:40:21;;;;;;;74.97;10.55;;;;;;;11.02;100.00;98337.97;5003512;28;20064;-55
2022/04/30 02:42:47;;;;;;;69.53;10.23;;;;;;;11.06;100.00;98331.72;5002993;28;20022;-55
2022/04/30 02:45:13;;;;;;;69.22;9.85;;;;;;;10.75;100.00;98327.63;5001999;28;20033;-55
2022/04/30 02:47:41;;;;;;;65.20;10.65;;;;;;;10.71;100.00;98326.06;5001645;28;20025;-54
2022/04/30 02:50:08;;;;;;;70.70;11.05;;;;;;;10.56;100.00;98327.47;5001188;28;20152;-54
2022/04/30 02:52:35;;;;;;;70.63;10.25;;;;;;;10.79;100.00;98321.44;5003641;28;20787;-53
2022/04/30 02:55:00;;;;;;;73.90;11.07;;;;;;;10.79;100.00;98318.81;5001586;28;20042;-54
2022/04/30 02:59:53;;;;;;;71.95;10.95;;;;;;;10.67;100.00;98327.09;5000894;28;20121;-55
2022/04/30 03:00:28;;;;;;;70.68;10.70;;;;;;;10.42;100.00;98322.72;5003145;28;20030;-55
2022/04/30 03:02:54;;;;;;;71.57;11.00;;;;;;;10.64;100.00;98320.19;5002455;28;20369;-54
2022/04/30 03:05:19;;;;;;;73.50;11.00;;;;;;;10.52;100.00;98316.28;5003061;28;20038;-54
2022/04/30 03:07:47;;;;;;;77.60;11.23;;;;;;;10.53;100.00;98312.78;5004228;28;20018;-54
2022/04/30 03:10:12;;;;;;;73.15;10.80;;;;;;;10.44;100.00;98310.50;5001963;28;20068;-55
2022/04/30 03:12:38;;;;;;;56.05;10.10;;;;;;;10.41;100.00;98311.44;5002684;28;20026;-55
2022/04/30 03:15:03;;;;;;;68.53;10.93;;;;;;;10.30;100.00;98310.09;4998883;28;20113;-56
2022/04/30 03:22:58;;;;;;;66.55;10.57;;;;;;;10.36;100.00;98302.09;5000300;28;20467;-55
2022/04/30 03:25:23;;;;;;;77.75;11.57;;;;;;;10.26;100.00;98308.50;5000971;28;20029;-55
2022/04/30 03:27:49;;;;;;;70.50;10.70;;;;;;;10.10;100.00;98303.81;5001101;28;20030;-54
2022/04/30 03:30:14;;;;;;;79.50;11.95;;;;;;;10.21;100.00;98312.09;5000699;28;20026;-55
2022/04/30 03:32:42;;;;;;;71.22;11.13;;;;;;;10.29;100.00;98303.16;5001789;28;20381;-54
2022/04/30 03:35:08;;;;;;;76.20;11.40;;;;;;;10.28;100.00;98298.88;5000074;28;20025;-55
2022/04/30 03:37:35;;;;;;;73.63;10.82;;;;;;;10.17;100.00;98291.44;5001789;28;20455;-55
2022/04/30 03:40:00;;;;;;;68.78;10.38;;;;;;;10.07;100.00;98298.69;5004270;28;20025;-54
2022/04/30 03:42:26;;;;;;;66.50;11.07;;;;;;;10.20;100.00;98293.91;5001932;28;20120;-54
2022/04/30 03:44:53;;;;;;;82.68;11.95;;;;;;;10.25;100.00;98293.75;5000123;28;20030;-54
2022/04/30 03:47:19;;;;;;;60.75;10.38;;;;;;;10.08;100.00;98295.19;5000958;28;20053;-55
2022/04/30 03:49:45;;;;;;;61.47;11.32;;;;;;;10.10;100.00;98301.19;5001392;28;20029;-54
2022/04/30 03:52:11;;;;;;;64.68;11.27;;;;;;;10.11;100.00;98300.31;5001680;28;20033;-54
2022/04/30 03:54:37;;;;;;;54.33;11.45;;;;;;;10.31;100.00;98298.78;5006402;28;20052;-53
2022/04/30 03:57:02;;;;;;;58.97;10.45;;;;;;;10.27;100.00;98297.16;4999252;28;20432;-54
2022/04/30 03:59:28;;;;;;;53.92;10.60;;;;;;;10.40;100.00;98290.63;5001303;28;20513;-54
2022/04/30 04:01:53;;;;;;;68.45;11.95;;;;;;;10.21;100.00;98296.47;5000006;28;20089;-54
2022/04/30 04:04:19;;;;;;;54.95;11.20;;;;;;;10.18;100.00;98294.00;5002496;28;20022;-54
2022/04/30 04:06:44;;;;;;;56.50;11.35;;;;;;;9.94;100.00;98289.59;5000681;28;20044;-54
2022/04/30 04:09:09;;;;;;;55.97;10.98;;;;;;;10.12;100.00;98291.56;5002567;28;20038;-55
2022/04/30 04:11:35;;;;;;;57.53;11.27;;;;;;;10.07;100.00;98293.47;5000314;28;20041;-54
2022/04/30 04:19:30;;;;;;;52.22;10.52;;;;;;;10.23;100.00;98281.63;5000938;28;20597;-57
2022/04/30 04:21:56;;;;;;;47.97;10.38;;;;;;;10.29;100.00;98277.94;5000060;28;20061;-57
2022/04/30 04:27:06;;;;;;;63.20;11.85;;;;;;;10.12;100.00;98275.94;5000943;28;20076;-54
2022/04/30 04:29:31;;;;;;;60.90;10.30;;;;;;;10.02;100.00;98285.84;5000271;28;20026;-54
2022/04/30 04:31:57;;;;;;;53.90;11.05;;;;;;;9.98;100.00;98280.75;5002140;28;20049;-55
2022/04/30 04:34:22;;;;;;;46.40;10.30;;;;;;;10.05;100.00;98284.88;5001809;28;20089;-55
2022/04/30 04:36:47;;;;;;;52.33;10.05;;;;;;;10.35;100.00;98282.16;4999629;28;20050;-54
2022/04/30 04:39:14;;;;;;;63.33;11.27;;;;;;;10.23;100.00;98292.03;5003705;28;20030;-55
2022/04/30 04:41:44;;;;;;;63.17;11.02;;;;;;;10.35;100.00;98297.78;5005096;28;20057;-54
2022/04/30 04:44:10;;;;;;;64.13;10.52;;;;;;;10.16;100.00;98298.41;5003121;28;20022;-54
2022/04/30 04:46:38;;;;;;;64.43;11.43;;;;;;;10.56;100.00;98299.63;5002894;28;20034;-55
2022/04/30 04:49:05;;;;;;;72.03;11.70;;;;;;;10.55;100.00;98294.44;5004731;28;20065;-55
2022/04/30 04:51:30;;;;;;;60.35;10.88;;;;;;;10.51;100.00;98293.75;5001017;28;20538;-56
2022/04/30 04:53:55;;;;;;;62.13;10.85;;;;;;;10.32;100.00;98292.69;5004227;28;20061;-55
2022/04/30 04:56:22;;;;;;;64.57;11.13;;;;;;;10.59;100.00;98296.91;5003519;28;20053;-54
2022/04/30 04:58:47;;;;;;;56.75;10.57;;;;;;;10.61;100.00;98297.69;5004988;28;20053;-55
2022/04/30 05:01:12;;;;;;;59.55;10.70;;;;;;;10.84;100.00;98305.59;5003628;28;20036;-55
2022/04/30 05:03:38;;;;;;;63.63;10.73;;;;;;;11.00;100.00;98291.91;5002618;28;20456;-55
2022/04/30 05:06:03;;;;;;;54.97;10.63;;;;;;;10.73;100.00;98293.81;5003352;28;20623;-55
2022/04/30 05:08:28;;;;;;;62.85;10.63;;;;;;;11.03;100.00;98295.28;5004735;28;20064;-57
2022/04/30 05:10:54;;;;;;;55.20;10.30;;;;;;;11.06;100.00;98296.03;5005334;28;20032;-56
2022/04/30 05:13:19;;;;;;;54.33;10.05;;;;;;;11.12;100.00;98302.78;5002998;28;20037;-56
2022/04/30 05:15:44;;;;;;;54.55;10.15;;;;;;;11.23;100.00;98297.13;5004514;28;20657;-57
2022/04/30 05:18:10;;;;;;;63.90;10.20;;;;;;;11.32;100.00;98297.66;5006835;28;20152;-56
2022/04/30 05:20:35;;;;;;;65.65;10.88;;;;;;;11.56;100.00;98310.63;5004545;28;20769;-54
2022/04/30 05:23:00;;;;;;;67.70;11.75;;;;;;;11.62;100.00;98307.78;5003349;28;20435;-54
2022/04/30 05:25:26;;;;;;;60.95;10.50;;;;;;;11.76;100.00;98308.09;5003111;28;20029;-54
2022/04/30 05:27:52;;;;;;;72.05;11.25;;;;;;;11.71;100.00;98315.25;5004490;28;20025;-55
2022/04/30 05:30:17;;;;;;;61.22;11.00;;;;;;;11.90;100.00;98315.38;5002004;28;20097;-56
2022/04/30 05:32:43;;;;;;;67.43;11.02;;;;;;;12.28;100.00;98325.16;5004725;28;20026;-54
2022/04/30 05:35:10;;;;;;;55.15;10.32;;;;;;;12.77;100.00;98316.91;5003820;28;20026;-55
2022/04/30 05:37:35;;;;;;;62.95;9.68;;;;;;;13.74;100.00;98317.66;5003367;28;20034;-55
2022/04/30 05:40:00;;;;;;;57.25;10.20;;;;;;;13.60;100.00;98315.69;5002781;28;20495;-56
2022/04/30 05:42:26;;;;;;;54.47;10.55;;;;;;;14.05;100.00;98309.97;5001572;28;20038;-55
2022/04/30 05:44:51;;;;;;;83.05;11.95;;;;;;;13.98;100.00;98313.81;5001161;28;20037;-55
2022/04/30 05:47:18;;;;;;;45.75;9.65;;;;;;;13.79;100.00;98310.44;5003664;28;20037;-54
2022/04/30 05:49:43;;;;;;;54.05;9.88;;;;;;;13.81;100.00;98313.81;5005289;28;20076;-54
2022/04/30 05:52:09;;;;;;;66.50;10.73;;;;;;;13.72;100.00;98311.66;5002592;28;20041;-55
2022/04/30 05:54:34;;;;;;;59.83;10.18;;;;;;;15.06;95.05;98308.28;5002885;28;20033;-54
2022/04/30 05:57:00;;;;;;;61.78;10.38;;;;;;;14.68;94.78;98313.78;5001305;28;20026;-54
2022/04/30 05:59:25;;;;;;;53.13;9.75;;;;;;;15.33;94.60;98310.31;5005074;28;20092;-54
2022/04/30 06:01:50;;;;;;;68.93;10.38;;;;;;;15.36;93.99;98315.41;5000157;28;20128;-54
2022/04/30 06:04:16;;;;;;;53.70;10.02;;;;;;;14.96;92.21;98320.19;5002767;28;20105;-55
2022/04/30 06:06:41;;;;;;;51.78;9.65;;;;;;;15.05;86.89;98311.81;5001747;28;20593;-53
2022/04/30 06:09:07;;;;;;;61.13;10.02;;;;;;;15.39;88.87;98328.38;5002757;28;20365;-54
2022/04/30 06:11:32;;;;;;;49.33;9.95;;;;;;;14.34;92.74;98331.28;5002293;28;20057;-53
2022/04/30 06:13:58;;;;;;;59.28;10.07;;;;;;;14.71;93.74;98329.41;5004873;28;20484;-55
2022/04/30 06:16:23;;;;;;;60.88;10.13;;;;;;;14.54;96.36;98334.63;5005123;28;20056;-54
2022/04/30 06:18:48;;;;;;;52.08;9.63;;;;;;;14.80;91.22;98334.16;5003396;28;20032;-54
2022/04/30 06:21:14;;;;;;;67.18;10.18;;;;;;;15.36;86.00;98341.69;5001254;28;20038;-55
2022/04/30 06:23:39;;;;;;;57.10;10.18;;;;;;;15.69;86.44;98343.38;5003057;28;20072;-55
2022/04/30 06:26:04;;;;;;;58.20;9.60;;;;;;;16.59;77.98;98339.91;5001516;28;20124;-57
2022/04/30 06:28:30;;;;;;;59.28;9.45;;;;;;;17.20;73.87;98347.66;5000639;28;20021;-54
2022/04/30 06:30:55;;;;;;;58.95;9.60;;;;;;;17.25;74.13;98348.22;5003697;28;20684;-55
2022/04/30 06:33:20;;;;;;;69.60;10.13;;;;;;;17.63;69.83;98355.50;5004653;28;20077;-55
2022/04/30 06:35:45;;;;;;;53.55;8.68;;;;;;;15.78;91.66;98356.88;5002283;28;20038;-55
2022/04/30 06:38:11;;;;;;;63.38;9.68;;;;;;;15.68;83.97;98352.19;5003664;28;20122;-55
2022/04/30 06:40:37;;;;;;;51.28;9.10;;;;;;;15.84;80.78;98358.31;5002677;28;20044;-53
2022/04/30 06:43:02;;;;;;;50.72;9.25;;;;;;;16.00;78.92;98367.03;5003337;28;20116;-54
2022/04/30 06:45:29;;;;;;;57.78;9.50;;;;;;;15.88;84.27;98359.84;5000886;28;20140;-55
2022/04/30 06:47:54;;;;;;;55.85;9.50;;;;;;;16.41;80.37;98364.72;5001996;28;20021;-54
2022/04/30 06:50:20;;;;;;;56.75;9.30;;;;;;;16.26;81.12;98358.56;5000333;28;20435;-55
2022/04/30 06:58:14;;;;;;;50.25;9.25;;;;;;;16.58;73.47;98365.41;4988487;28;20038;-55
2022/04/30 07:03:26;;;;;;;44.20;8.73;;;;;;;17.66;64.21;98371.13;5003695;28;20461;-55
2022/04/30 07:05:55;;;;;;;61.78;9.40;;;;;;;18.99;62.75;98358.78;5001422;28;20542;-55
2022/04/30 07:08:21;;;;;;;45.15;8.68;;;;;;;19.17;59.28;98367.22;5003789;28;20030;-54
2022/04/30 07:10:46;;;;;;;53.55;9.40;;;;;;;21.10;54.29;98366.25;5002944;28;20034;-55
2022/04/30 07:13:11;;;;;;;49.30;9.00;;;;;;;20.92;49.05;98372.03;5002062;28;20022;-55
2022/04/30 07:15:37;;;;;;;53.75;9.30;;;;;;;21.93;49.26;98367.63;5001140;28;20043;-57
2022/04/30 07:18:02;;;;;;;54.55;8.82;;;;;;;21.85;49.99;98370.03;5004452;28;20028;-56
2022/04/30 07:20:27;;;;;;;46.67;9.00;;;;;;;20.28;52.65;98371.63;5001903;28;20084;-55
2022/04/30 07:22:53;;;;;;;54.33;9.50;;;;;;;21.04;49.92;98362.25;5002176;28;20414;-56
2022/04/30 07:25:18;;;;;;;48.25;9.13;;;;;;;19.07;52.31;98367.00;5001407;28;20508;-55
2022/04/30 07:27:44;;;;;;;48.20;8.60;;;;;;;20.75;50.01;98369.81;5002441;28;20022;-55
2022/04/30 07:30:09;;;;;;;48.38;9.27;;;;;;;19.88;51.31;98363.97;5000422;28;20036;-56
2022/04/30 07:32:35;;;;;;;49.25;9.30;;;;;;;19.99;51.45;98366.69;4999736;28;20030;-55
2022/04/30 07:35:00;;;;;;;56.22;9.35;;;;;;;19.31;53.39;98360.09;5002025;28;20068;-56
2022/04/30 07:37:25;;;;;;;51.10;9.48;;;;;;;19.58;53.41;98357.28;4999347;28;20576;-54
2022/04/30 07:39:51;;;;;;;43.20;9.43;;;;;;;19.67;52.24;98364.56;5002646;28;20037;-56
2022/04/30 07:42:16;;;;;;;54.60;9.32;;;;;;;20.16;53.42;98358.34;5000950;28;20034;-56
2022/04/30 07:44:41;;;;;;;57.80;9.70;;;;;;;20.20;50.75;98357.16;5000896;28;20026;-56
2022/04/30 07:47:07;;;;;;;58.10;10.30;;;;;;;19.23;52.11;98358.00;5002748;28;20030;-56
2022/04/30 07:49:32;;;;;;;50.38;8.98;;;;;;;20.79;50.10;98353.59;5005630;28;20021;-56
2022/04/30 07:51:57;;;;;;;53.17;9.27;;;;;;;20.13;50.71;98358.56;5000818;28;20053;-57
2022/04/30 07:54:26;;;;;;;47.28;8.32;;;;;;;19.15;54.52;98360.34;5000002;28;20479;-55
2022/04/30 07:56:53;;;;;;;50.55;9.00;;;;;;;18.95;55.34;98359.09;4999823;28;20084;-55
2022/04/30 07:59:19;;;;;;;60.80;9.27;;;;;;;18.59;55.55;98360.66;4999565;28;20053;-55
2022/04/30 08:01:44;;;;;;;47.80;8.70;;;;;;;19.65;53.67;98363.84;5000283;28;20125;-55
2022/04/30 08:04:10;;;;;;;57.03;8.90;;;;;;;20.13;53.07;98361.22;5001957;28;20029;-56
2022/04/30 08:06:38;;;;;;;46.97;7.90;;;;;;;19.57;53.48;98355.59;5003146;28;20113;-56
2022/04/30 08:09:04;;;;;;;45.25;8.27;;;;;;;18.80;55.20;98355.69;5000298;28;20027;-56
2022/04/30 08:11:29;;;;;;;60.00;9.20;;;;;;;20.41;51.10;98361.78;5004424;28;20045;-55
2022/04/30 08:13:55;;;;;;;55.22;8.45;;;;;;;20.69;51.68;98352.59;5007472;28;20253;-55
2022/04/30 08:16:20;;;;;;;57.90;8.65;;;;;;;19.67;55.04;98353.09;5006049;28;20045;-56
2022/04/30 08:18:45;;;;;;;50.63;8.63;;;;;;;18.81;55.57;98352.13;5003663;28;20939;-56
2022/04/30 08:21:11;;;;;;;40.75;8.55;;;;;;;19.18;52.11;98354.84;5001706;28;20061;-57
2022/04/30 08:23:37;;;;;;;60.47;9.57;;;;;;;19.03;52.90;98347.03;5004709;28;20026;-56
2022/04/30 08:26:03;;;;;;;39.28;8.10;;;;;;;20.00;50.85;98352.50;5005370;28;20038;-57
2022/04/30 08:28:29;;;;;;;67.18;9.27;;;;;;;19.75;53.59;98349.00;5002635;28;20452;-57
2022/04/30 08:30:54;;;;;;;47.83;8.65;;;;;;;19.70;52.52;98345.78;5003770;28;20583;-56
2022/04/30 08:33:19;;;;;;;55.72;9.52;;;;;;;20.09;51.37;98354.47;5005792;28;20925;-57
2022/04/30 08:35:45;;;;;;;55.50;9.55;;;;;;;19.71;52.33;98344.84;5004233;28;20042;-55
2022/04/30 08:38:10;;;;;;;47.33;8.30;;;;;;;20.67;50.86;98346.56;5005412;28;20025;-54
2022/04/30 08:40:36;;;;;;;49.20;8.73;;;;;;;22.03;48.99;98349.94;5004504;28;20053;-54
2022/04/30 08:43:10;;;;;;;55.20;9.20;;;;;;;20.61;49.65;98344.41;5004638;28;20348;-56
2022/04/30 08:45:40;;;;;;;48.17;8.85;;;;;;;20.33;49.44;98337.69;5003242;28;20690;-56
2022/04/30 08:48:08;;;;;;;46.10;8.93;;;;;;;21.10;48.24;98347.69;5003260;28;20029;-57
2022/04/30 08:50:33;;;;;;;52.75;8.68;;;;;;;21.72;48.46;98336.53;5001521;28;20110;-57
2022/04/30 08:52:59;;;;;;;69.53;9.77;;;;;;;21.54;47.54;98340.66;5004867;28;20186;-57
2022/04/30 08:55:24;;;;;;;55.10;8.80;;;;;;;20.81;49.48;98337.56;5003225;28;20025;-56
2022/04/30 08:57:49;;;;;;;63.83;10.13;;;;;;;20.60;48.80;98340.00;5004249;28;20427;-57
2022/04/30 09:00:15;;;;;;;49.50;8.20;;;;;;;22.13;46.10;98334.94;5005053;28;20034;-59
2022/04/30 09:02:54;;;;;;;53.67;8.38;;;;;;;22.27;46.49;98327.66;5005569;28;20038;-56
2022/04/30 09:05:21;;;;;;;50.65;8.13;;;;;;;23.44;45.72;98329.09;5003430;28;20045;-58
2022/04/30 09:07:57;;;;;;;49.40;8.75;;;;;;;22.15;45.80;98334.81;5003970;28;20056;-56
2022/04/30 09:10:24;;;;;;;78.57;23.42;;;;;;;22.21;46.22;98328.97;5001898;28;20625;-57
2022/04/30 09:12:51;;;;;;;73.30;26.27;;;;;;;21.32;45.54;98321.16;5005362;28;20687;-58
2022/04/30 09:15:16;;;;;;;171.82;79.00;;;;;;;21.82;47.56;98331.31;5004314;28;20028;-57
2022/04/30 09:17:42;;;;;;;79.60;26.40;;;;;;;20.79;49.25;98329.72;5004642;28;20368;-57
2022/04/30 09:20:16;;;;;;;109.07;31.63;;;;;;;22.17;46.12;98326.72;5003081;28;20504;-54
2022/04/30 09:22:42;;;;;;;74.43;19.75;;;;;;;22.12;46.42;98325.25;5003511;28;20026;-56
2022/04/30 09:25:13;;;;;;;50.50;9.90;;;;;;;22.12;45.38;98329.75;5005267;28;20037;-55
2022/04/30 09:27:49;;;;;;;48.30;9.93;;;;;;;24.24;42.02;98329.91;5003836;28;20046;-55
2022/04/30 09:30:15;;;;;;;72.57;14.20;;;;;;;24.01;42.49;98326.69;5000986;28;20033;-57
2022/04/30 09:32:40;;;;;;;49.45;9.57;;;;;;;23.76;43.28;98325.34;5002614;28;20026;-57
2022/04/30 09:38:01;;;;;;;59.88;9.98;;;;;;;22.67;43.08;98319.78;5001295;28;20600;-56
2022/04/30 09:40:26;;;;;;;60.88;9.60;;;;;;;24.80;40.34;98316.78;5001603;28;20117;-57
2022/04/30 09:42:52;;;;;;;44.53;8.93;;;;;;;23.88;42.01;98311.97;5003772;28;20037;-57
2022/04/30 09:45:34;;;;;;;50.35;8.55;;;;;;;24.71;41.83;98307.81;5000163;28;20034;-56
2022/04/30 09:48:02;;;;;;;47.50;8.60;;;;;;;23.11;42.22;98306.31;4994714;28;20025;-56
2022/04/30 09:56:06;;;;;;;54.38;8.88;;;;;;;25.05;39.61;98303.75;5001045;28;20145;-56
2022/04/30 09:58:35;;;;;;;55.55;9.15;;;;;;;25.62;39.70;98290.25;5004535;28;20043;-58
2022/04/30 10:01:01;;;;;;;51.45;8.40;;;;;;;26.33;37.42;98292.91;5003607;28;20037;-56
2022/04/30 10:03:31;;;;;;;54.35;9.10;;;;;;;26.45;36.74;98287.28;5000279;28;20029;-56
2022/04/30 10:06:06;;;;;;;66.45;10.65;;;;;;;26.14;37.70;98285.09;5000443;28;20389;-57
2022/04/30 10:08:36;;;;;;;58.25;9.77;;;;;;;26.32;38.12;98285.03;5002939;28;20036;-56
2022/04/30 10:11:14;;;;;;;47.20;8.88;;;;;;;26.78;38.12;98287.53;5004539;28;20038;-56
2022/04/30 10:14:25;;;;;;;53.22;8.73;;;;;;;24.35;40.21;98286.22;5003600;28;20030;-56
2022/04/30 10:19:35;;;;;;;43.85;7.68;;;;;;;23.44;40.77;98283.84;5005554;28;20032;-56
2022/04/30 10:22:11;;;;;;;49.60;8.65;;;;;;;22.74;41.38;98285.56;5000196;28;20041;-57
2022/04/30 10:24:44;;;;;;;44.13;8.48;;;;;;;22.11;43.73;98275.78;4999595;28;20030;-56
2022/04/30 10:27:10;;;;;;;51.15;8.05;;;;;;;22.47;44.96;98276.31;5002120;28;20034;-56
2022/04/30 10:29:35;;;;;;;46.38;8.10;;;;;;;22.91;44.66;98279.59;5001734;28;20111;-56
2022/04/30 10:32:00;;;;;;;59.65;8.73;;;;;;;22.04;45.50;98279.94;5002095;28;20045;-56
2022/04/30 10:34:30;;;;;;;53.75;8.48;;;;;;;21.09;45.04;98280.53;5004735;28;20030;-56
2022/04/30 10:36:56;;;;;;;55.85;9.07;;;;;;;21.87;44.95;98280.47;5003164;28;20034;-57
2022/04/30 10:39:21;;;;;;;56.58;9.20;;;;;;;21.10;51.25;98286.69;4999702;28;20032;-56
2022/04/30 10:41:50;;;;;;;50.28;7.95;;;;;;;21.66;53.14;98286.59;5003646;28;20120;-56
2022/04/30 10:44:15;;;;;;;37.72;7.80;;;;;;;20.66;58.26;98288.38;5002805;28;20034;-55
2022/04/30 10:46:45;;;;;;;48.88;8.15;;;;;;;21.54;59.03;98283.16;5003503;28;20038;-57
2022/04/30 10:49:11;;;;;;;50.38;9.52;;;;;;;20.43;63.54;98288.31;5003841;28;20045;-56
2022/04/30 10:51:40;;;;;;;33.42;8.15;;;;;;;20.96;56.66;98288.63;5001157;28;20045;-57
2022/04/30 10:54:18;;;;;;;57.58;10.23;;;;;;;20.29;57.54;98284.09;5002321;28;20034;-56
2022/04/30 10:56:45;;;;;;;57.55;10.07;;;;;;;19.97;54.55;98290.00;4999616;28;20029;-56
2022/04/30 10:59:21;;;;;;;73.05;10.63;;;;;;;20.86;55.84;98282.38;4999259;28;20030;-57
2022/04/30 11:01:50;;;;;;;50.13;8.38;;;;;;;20.79;54.00;98281.19;5001314;28;20038;-56
2022/04/30 11:04:16;;;;;;;55.75;8.52;;;;;;;21.42;52.47;98277.97;5003462;28;20028;-56
2022/04/30 11:06:43;;;;;;;63.50;9.27;;;;;;;20.67;55.84;98277.66;5000102;28;20129;-57
2022/04/30 11:09:09;;;;;;;58.92;9.05;;;;;;;20.48;58.69;98275.56;5002726;28;20029;-56
2022/04/30 11:11:35;;;;;;;54.10;9.05;;;;;;;20.17;55.12;98272.63;5000966;28;20184;-55
2022/04/30 11:14:03;;;;;;;54.83;8.98;;;;;;;19.97;51.26;98266.19;5001724;28;20368;-58
2022/04/30 11:16:36;;;;;;;54.22;9.20;;;;;;;20.15;50.55;98271.91;5002049;28;20504;-56
2022/04/30 11:19:08;;;;;;;52.10;8.95;;;;;;;20.20;48.96;98269.75;5001229;28;20045;-56
2022/04/30 11:21:35;;;;;;;72.00;9.40;;;;;;;19.79;55.03;98265.75;4996887;28;23155;-56
2022/04/30 11:24:01;;;;;;;58.25;9.77;;;;;;;20.38;51.50;98271.94;4997909;28;20423;-56
2022/04/30 11:26:29;;;;;;;66.68;9.85;;;;;;;19.47;58.33;98273.41;5001294;28;20096;-56
2022/04/30 11:28:54;;;;;;;48.78;8.85;;;;;;;18.46;62.71;98268.19;5001683;28;20028;-56
2022/04/30 11:31:20;;;;;;;56.15;8.75;;;;;;;18.70;62.65;98268.28;5000899;28;20041;-56
2022/04/30 11:33:46;;;;;;;47.42;7.68;;;;;;;19.11;59.97;98266.34;5001867;28;20065;-55
2022/04/30 11:36:12;;;;;;;60.75;8.52;;;;;;;19.01;64.85;98261.72;5000118;28;20100;-56
2022/04/30 11:38:38;;;;;;;56.33;8.13;;;;;;;18.35;60.56;98254.91;5001600;28;20099;-57
2022/04/30 11:41:10;;;;;;;64.28;7.82;;;;;;;19.16;54.65;98261.56;5002621;28;20670;-57
2022/04/30 11:43:36;;;;;;;61.78;8.50;;;;;;;19.02;55.09;98260.75;5002092;28;20088;-55
2022/04/30 11:46:02;;;;;;;59.85;8.30;;;;;;;18.58;53.10;98262.06;4999923;28;20037;-56
2022/04/30 11:48:37;;;;;;;53.78;7.93;;;;;;;19.25;51.57;98255.63;5003560;28;20038;-58
2022/04/30 11:51:03;;;;;;;69.30;8.85;;;;;;;19.14;50.47;98255.56;4997855;28;20054;-57
2022/04/30 11:53:29;;;;;;;57.20;8.98;;;;;;;19.30;48.97;98248.19;4999410;28;20038;-56